Time;durP1;ratioP1;P1;durP2;ratioP2;P2;SDS_P1;SDS_P2;PMS_P1;PMS_P2;Temp;Humidity;BMP_temperature;BMP_pressure;BME280_temperature;BME280_humidity;BME280_pressure;Samples;Min_cycle;Max_cycle;Signal;HPM_P1;HPM_P2
2023/12/01 00:01:27;;;;;;;51.53;19.75;;;;;;;;;;4996714;28;20052;-78
2023/12/01 00:03:53;;;;;;;42.20;19.25;;;;;;;;;;4996533;28;20054;-78
2023/12/01 00:06:20;;;;;;;45.08;19.42;;;;;;;;;;4994580;28;20586;-78
2023/12/01 00:08:46;;;;;;;44.50;19.13;;;;;;;;;;4995393;28;20047;-78
2023/12/01 00:11:12;;;;;;;41.38;18.48;;;;;;;;;;4995833;28;20053;-78
2023/12/01 00:13:38;;;;;;;40.80;18.52;;;;;;;;;;4996043;28;20053;-78
2023/12/01 00:16:04;;;;;;;44.70;19.50;;;;;;;;;;4997439;28;20400;-78
2023/12/01 00:18:30;;;;;;;43.97;19.67;;;;;;;;;;4994658;28;20444;-78
2023/12/01 00:20:56;;;;;;;36.03;17.70;;;;;;;;;;4994685;28;20507;-78
2023/12/01 00:23:23;;;;;;;39.13;17.67;;;;;;;;;;4995854;28;20050;-78
2023/12/01 00:25:49;;;;;;;40.03;17.67;;;;;;;;;;4995868;28;20058;-78
2023/12/01 00:28:15;;;;;;;37.63;17.48;;;;;;;;;;4995407;28;20074;-78
2023/12/01 00:30:41;;;;;;;38.45;16.83;;;;;;;;;;4995895;28;20046;-78
2023/12/01 00:33:07;;;;;;;39.38;18.48;;;;;;;;;;4994312;28;20093;-78
2023/12/01 00:35:33;;;;;;;37.20;17.60;;;;;;;;;;4987742;28;20046;-78
2023/12/01 00:37:59;;;;;;;35.67;18.15;;;;;;;;;;4994425;28;20559;-78
2023/12/01 00:40:25;;;;;;;36.28;17.88;;;;;;;;;;4993009;28;20472;-78
2023/12/01 00:42:51;;;;;;;33.00;16.27;;;;;;;;;;4995086;28;20177;-78
2023/12/01 00:45:17;;;;;;;35.55;15.80;;;;;;;;;;4994863;28;20050;-78
2023/12/01 00:47:43;;;;;;;36.70;16.92;;;;;;;;;;4995711;28;20038;-78
2023/12/01 00:50:09;;;;;;;34.35;17.23;;;;;;;;;;4995472;28;20046;-78
2023/12/01 00:52:36;;;;;;;37.60;18.40;;;;;;;;;;4978340;28;20484;-78
2023/12/01 00:55:02;;;;;;;41.25;19.35;;;;;;;;;;4995709;28;20539;-78
2023/12/01 00:57:28;;;;;;;37.90;18.65;;;;;;;;;;4994925;28;20034;-78
2023/12/01 00:59:54;;;;;;;33.55;15.73;;;;;;;;;;4993456;28;20042;-78
2023/12/01 01:02:20;;;;;;;37.65;17.92;;;;;;;;;;4995636;28;20058;-78
2023/12/01 01:04:46;;;;;;;39.40;18.75;;;;;;;;;;4995365;28;20108;-78
2023/12/01 01:07:12;;;;;;;38.60;18.17;;;;;;;;;;4995210;28;20058;-78
2023/12/01 01:09:38;;;;;;;36.13;18.33;;;;;;;;;;4992469;28;20042;-78
2023/12/01 01:12:04;;;;;;;38.80;19.30;;;;;;;;;;4995441;28;20050;-78
2023/12/01 01:14:30;;;;;;;33.35;16.15;;;;;;;;;;4994679;28;20049;-78
2023/12/01 01:16:57;;;;;;;30.00;15.57;;;;;;;;;;4994831;28;20109;-78
2023/12/01 01:19:23;;;;;;;30.00;16.58;;;;;;;;;;4995103;28;20047;-78
2023/12/01 01:21:49;;;;;;;34.58;18.88;;;;;;;;;;4994548;28;20049;-78
2023/12/01 01:24:16;;;;;;;35.35;18.60;;;;;;;;;;4995153;28;20062;-78
2023/12/01 01:26:42;;;;;;;34.00;17.73;;;;;;;;;;4997676;28;20100;-78
2023/12/01 01:29:09;;;;;;;35.35;17.92;;;;;;;;;;4994539;28;20468;-78
2023/12/01 01:31:35;;;;;;;31.10;15.88;;;;;;;;;;4993917;28;20042;-78
2023/12/01 01:34:01;;;;;;;34.38;16.90;;;;;;;;;;4993396;28;20046;-78
2023/12/01 01:36:27;;;;;;;35.78;17.33;;;;;;;;;;4992764;28;20057;-78
2023/12/01 01:38:53;;;;;;;36.10;16.35;;;;;;;;;;4993816;28;20133;-78
2023/12/01 01:41:19;;;;;;;35.78;17.23;;;;;;;;;;4974719;28;20061;-78
2023/12/01 01:43:45;;;;;;;37.63;17.63;;;;;;;;;;4993642;28;20515;-78
2023/12/01 01:46:12;;;;;;;38.20;17.50;;;;;;;;;;4993384;28;20046;-78
2023/12/01 01:48:38;;;;;;;38.50;18.67;;;;;;;;;;4993966;28;20126;-78
2023/12/01 01:51:06;;;;;;;36.33;15.70;;;;;;;;;;4993502;28;20050;-78
2023/12/01 01:53:33;;;;;;;40.88;17.58;;;;;;;;;;4994430;28;20454;-78
2023/12/01 01:55:59;;;;;;;32.10;14.52;;;;;;;;;;4994664;28;20045;-79
2023/12/01 01:58:26;;;;;;;33.88;16.20;;;;;;;;;;4994785;28;20045;-78
2023/12/01 02:00:52;;;;;;;32.85;15.50;;;;;;;;;;4993617;28;20054;-78
2023/12/01 02:03:20;;;;;;;32.53;15.05;;;;;;;;;;4994880;28;20054;-78
2023/12/01 02:05:47;;;;;;;39.17;17.42;;;;;;;;;;4992341;28;20396;-78
2023/12/01 02:08:41;;;;;;;41.10;16.88;;;;;;;;;;4994480;28;20050;-78
2023/12/01 02:11:07;;;;;;;40.45;15.23;;;;;;;;;;4991827;28;20054;-78
2023/12/01 02:13:33;;;;;;;39.00;16.15;;;;;;;;;;4994160;28;20034;-78
2023/12/01 02:16:02;;;;;;;32.92;14.25;;;;;;;;;;4988460;28;20121;-78
2023/12/01 02:18:34;;;;;;;41.63;16.20;;;;;;;;;;4992388;28;20408;-78
2023/12/01 02:21:00;;;;;;;46.17;16.25;;;;;;;;;;4993790;28;20046;-78
2023/12/01 02:23:26;;;;;;;35.83;15.50;;;;;;;;;;4994216;28;20042;-78
2023/12/01 02:25:52;;;;;;;37.42;15.77;;;;;;;;;;4999221;28;20104;-78
2023/12/01 02:28:19;;;;;;;34.13;16.25;;;;;;;;;;5000638;28;20038;-78
2023/12/01 02:30:50;;;;;;;35.05;15.48;;;;;;;;;;4994574;28;20046;-78
2023/12/01 02:33:16;;;;;;;37.15;16.48;;;;;;;;;;4991332;28;20049;-78
2023/12/01 02:35:49;;;;;;;43.58;15.75;;;;;;;;;;4993536;28;20121;-78
2023/12/01 02:38:15;;;;;;;35.75;16.45;;;;;;;;;;4994720;28;20050;-78
2023/12/01 02:41:02;;;;;;;40.88;17.73;;;;;;;;;;4993962;28;20488;-78
2023/12/01 02:43:28;;;;;;;36.72;16.63;;;;;;;;;;4990456;28;20070;-78
2023/12/01 02:45:54;;;;;;;37.85;17.17;;;;;;;;;;4993054;28;20049;-78
2023/12/01 02:48:20;;;;;;;42.03;17.70;;;;;;;;;;4992779;28;20054;-78
2023/12/01 02:50:46;;;;;;;44.20;19.05;;;;;;;;;;4992702;28;20088;-78
2023/12/01 02:53:12;;;;;;;41.78;17.92;;;;;;;;;;4993474;28;20054;-78
2023/12/01 02:55:38;;;;;;;42.88;18.02;;;;;;;;;;4993720;28;20058;-78
2023/12/01 02:58:04;;;;;;;37.95;18.00;;;;;;;;;;4992576;28;20504;-78
2023/12/01 03:00:33;;;;;;;45.53;19.90;;;;;;;;;;4993913;28;20485;-78
2023/12/01 03:03:00;;;;;;;39.70;18.02;;;;;;;;;;4991873;28;20069;-78
2023/12/01 03:05:26;;;;;;;40.20;18.85;;;;;;;;;;4991517;28;20050;-78
2023/12/01 03:07:52;;;;;;;38.55;17.50;;;;;;;;;;4993674;28;20058;-78
2023/12/01 03:10:18;;;;;;;41.90;19.90;;;;;;;;;;4993501;28;20121;-78
2023/12/01 03:12:45;;;;;;;47.65;21.88;;;;;;;;;;4992275;28;20484;-78
2023/12/01 03:15:20;;;;;;;51.20;22.08;;;;;;;;;;4991879;28;20046;-78
2023/12/01 03:17:49;;;;;;;43.22;20.00;;;;;;;;;;4994452;28;20111;-78
2023/12/01 03:20:16;;;;;;;40.70;18.55;;;;;;;;;;4993724;28;20118;-78
2023/12/01 03:22:42;;;;;;;45.15;20.95;;;;;;;;;;4993621;28;20046;-78
2023/12/01 03:25:12;;;;;;;44.30;19.30;;;;;;;;;;4997437;28;20038;-78
2023/12/01 03:27:39;;;;;;;43.95;19.10;;;;;;;;;;4997610;28;20402;-78
2023/12/01 03:30:15;;;;;;;41.50;18.42;;;;;;;;;;4996901;28;20050;-78
2023/12/01 03:32:54;;;;;;;49.83;21.65;;;;;;;;;;4997391;28;20089;-78
2023/12/01 03:35:21;;;;;;;45.13;20.42;;;;;;;;;;4996955;28;20448;-78
2023/12/01 03:37:47;;;;;;;49.20;21.50;;;;;;;;;;4996618;28;20046;-78
2023/12/01 03:40:14;;;;;;;48.92;20.73;;;;;;;;;;4996143;28;20121;-78
2023/12/01 03:42:45;;;;;;;49.47;21.75;;;;;;;;;;4997663;28;20043;-78
2023/12/01 03:45:12;;;;;;;;;;;;;;;;;;4995524;28;20061;-78
2023/12/01 03:47:38;;;;;;;49.53;20.40;;;;;;;;;;4996785;28;19930;-78
2023/12/01 03:50:04;;;;;;;50.17;21.25;;;;;;;;;;4984098;28;20046;-78
2023/12/01 03:52:31;;;;;;;49.13;21.13;;;;;;;;;;4979101;28;20101;-78
2023/12/01 03:54:58;;;;;;;44.63;20.33;;;;;;;;;;4996907;28;20122;-78
2023/12/01 03:57:27;;;;;;;49.47;20.08;;;;;;;;;;4995631;28;20042;-78
2023/12/01 03:59:54;;;;;;;47.25;20.52;;;;;;;;;;4977737;28;20400;-78
2023/12/01 04:02:21;;;;;;;47.00;19.38;;;;;;;;;;4994604;28;20046;-78
2023/12/01 04:04:47;;;;;;;49.78;20.55;;;;;;;;;;4997082;28;20054;-78
2023/12/01 04:07:13;;;;;;;49.45;20.15;;;;;;;;;;4995224;28;20065;-78
2023/12/01 04:09:39;;;;;;;47.63;20.48;;;;;;;;;;4996405;28;20452;-78
2023/12/01 04:12:08;;;;;;;43.40;18.10;;;;;;;;;;4995039;28;20039;-78
2023/12/01 04:14:34;;;;;;;50.42;19.98;;;;;;;;;;4995179;28;20038;-78
2023/12/01 04:17:08;;;;;;;45.92;19.63;;;;;;;;;;4996214;28;20049;-78
2023/12/01 04:19:38;;;;;;;41.88;19.00;;;;;;;;;;4996264;28;20038;-78
2023/12/01 04:22:07;;;;;;;39.53;16.30;;;;;;;;;;4995933;28;20576;-78
2023/12/01 04:24:34;;;;;;;39.72;17.73;;;;;;;;;;4996068;28;20101;-78
2023/12/01 04:27:04;;;;;;;37.42;16.92;;;;;;;;;;4994340;28;20389;-78
2023/12/01 04:29:30;;;;;;;39.97;18.17;;;;;;;;;;4995934;28;20378;-78
2023/12/01 04:31:57;;;;;;;37.92;17.05;;;;;;;;;;4995388;28;20042;-78
2023/12/01 04:34:26;;;;;;;38.10;16.45;;;;;;;;;;4996141;28;20115;-78
2023/12/01 04:36:52;;;;;;;34.30;16.08;;;;;;;;;;4995876;28;20050;-78
2023/12/01 04:39:18;;;;;;;36.22;16.10;;;;;;;;;;4993558;28;20054;-78
2023/12/01 04:41:44;;;;;;;30.33;14.98;;;;;;;;;;4994499;28;20088;-78
2023/12/01 04:44:10;;;;;;;31.33;14.98;;;;;;;;;;4994180;28;20500;-78
2023/12/01 04:46:36;;;;;;;31.55;14.30;;;;;;;;;;4994519;28;20046;-78
2023/12/01 04:49:02;;;;;;;31.10;14.80;;;;;;;;;;4995697;28;20051;-78
2023/12/01 04:51:29;;;;;;;29.70;13.50;;;;;;;;;;4994691;28;20089;-78
2023/12/01 04:53:55;;;;;;;32.13;14.43;;;;;;;;;;4994309;28;20108;-78
2023/12/01 04:56:21;;;;;;;30.88;14.20;;;;;;;;;;4995658;28;20128;-78
2023/12/01 04:58:47;;;;;;;27.23;14.05;;;;;;;;;;5002072;28;21320;-78
2023/12/01 05:01:13;;;;;;;25.05;13.20;;;;;;;;;;4993530;28;20047;-78
2023/12/01 05:03:39;;;;;;;27.05;13.48;;;;;;;;;;4995457;28;20046;-78
2023/12/01 05:06:05;;;;;;;26.65;13.57;;;;;;;;;;4993908;28;20105;-78
2023/12/01 05:08:31;;;;;;;28.70;13.93;;;;;;;;;;4995855;28;20042;-78
2023/12/01 05:10:57;;;;;;;29.63;13.63;;;;;;;;;;4995825;28;20463;-78
2023/12/01 05:13:23;;;;;;;27.08;13.27;;;;;;;;;;4994466;28;20435;-78
2023/12/01 05:15:49;;;;;;;28.05;14.20;;;;;;;;;;4995493;28;20046;-78
2023/12/01 05:18:15;;;;;;;29.02;13.63;;;;;;;;;;4991480;28;20046;-78
2023/12/01 05:20:41;;;;;;;30.63;13.80;;;;;;;;;;4995505;28;20104;-77
2023/12/01 05:23:09;;;;;;;24.00;12.68;;;;;;;;;;4995253;28;20042;-77
2023/12/01 05:25:37;;;;;;;26.23;12.85;;;;;;;;;;4995194;28;20483;-77
2023/12/01 05:28:04;;;;;;;24.55;12.80;;;;;;;;;;4995208;28;20054;-77
2023/12/01 05:30:31;;;;;;;26.02;13.48;;;;;;;;;;4993640;28;20034;-77
2023/12/01 05:33:00;;;;;;;29.00;13.50;;;;;;;;;;4994787;28;20492;-77
2023/12/01 05:35:27;;;;;;;26.00;13.13;;;;;;;;;;4995184;28;20049;-77
2023/12/01 05:37:54;;;;;;;27.70;13.13;;;;;;;;;;4994884;28;20122;-77
2023/12/01 05:40:24;;;;;;;30.90;15.07;;;;;;;;;;4993466;28;20046;-77
2023/12/01 05:42:54;;;;;;;32.25;15.23;;;;;;;;;;4994857;28;20058;-77
2023/12/01 05:45:21;;;;;;;32.38;15.63;;;;;;;;;;4996374;28;20046;-77
2023/12/01 05:47:48;;;;;;;27.42;12.88;;;;;;;;;;4989673;28;20042;-77
2023/12/01 05:50:18;;;;;;;33.08;15.07;;;;;;;;;;4994276;28;20396;-77
2023/12/01 05:52:45;;;;;;;33.25;14.88;;;;;;;;;;4993745;28;20046;-77
2023/12/01 05:55:18;;;;;;;32.42;15.30;;;;;;;;;;4993200;28;20086;-78
2023/12/01 05:57:48;;;;;;;28.25;14.05;;;;;;;;;;4992425;28;20516;-78
2023/12/01 06:00:15;;;;;;;28.30;14.73;;;;;;;;;;4984707;28;20055;-78
2023/12/01 06:02:51;;;;;;;27.92;13.65;;;;;;;;;;4993913;28;20046;-78
2023/12/01 06:05:18;;;;;;;30.95;14.38;;;;;;;;;;4993204;28;20038;-78
2023/12/01 06:07:49;;;;;;;29.63;13.95;;;;;;;;;;4991730;28;20117;-78
2023/12/01 06:10:15;;;;;;;25.83;13.45;;;;;;;;;;4993929;28;20042;-78
2023/12/01 06:12:41;;;;;;;28.08;13.73;;;;;;;;;;4992780;28;20496;-78
2023/12/01 06:15:09;;;;;;;25.55;12.25;;;;;;;;;;4992838;28;20459;-78
2023/12/01 06:17:36;;;;;;;26.92;13.43;;;;;;;;;;4991891;28;20492;-78
2023/12/01 06:20:03;;;;;;;28.13;13.25;;;;;;;;;;4993837;28;20055;-78
2023/12/01 06:22:29;;;;;;;28.55;13.80;;;;;;;;;;4993178;28;20046;-78
2023/12/01 06:24:55;;;;;;;27.88;14.10;;;;;;;;;;4993763;28;20108;-78
2023/12/01 06:27:22;;;;;;;29.63;14.00;;;;;;;;;;4992500;28;20046;-78
2023/12/01 06:29:49;;;;;;;28.95;14.32;;;;;;;;;;4991428;28;20472;-78
2023/12/01 06:32:16;;;;;;;28.20;13.75;;;;;;;;;;4993219;28;20121;-78
2023/12/01 06:34:42;;;;;;;31.10;14.27;;;;;;;;;;4992983;28;20065;-78
2023/12/01 06:37:08;;;;;;;31.25;14.30;;;;;;;;;;4993646;28;20078;-78
2023/12/01 06:39:34;;;;;;;29.77;13.50;;;;;;;;;;4993696;28;20062;-78
2023/12/01 06:42:00;;;;;;;28.10;13.02;;;;;;;;;;4990047;28;20439;-78
2023/12/01 06:44:26;;;;;;;26.77;12.88;;;;;;;;;;4989314;28;20042;-78
2023/12/01 06:46:52;;;;;;;27.98;13.27;;;;;;;;;;5000768;28;20084;-78
2023/12/01 06:49:19;;;;;;;26.23;12.85;;;;;;;;;;4993144;28;20057;-78
2023/12/01 06:51:48;;;;;;;30.92;14.63;;;;;;;;;;4992284;28;20135;-78
2023/12/01 06:54:14;;;;;;;28.63;13.30;;;;;;;;;;4992230;28;20054;-78
2023/12/01 06:56:40;;;;;;;28.85;13.65;;;;;;;;;;4992439;28;20484;-78
2023/12/01 06:59:06;;;;;;;29.80;13.60;;;;;;;;;;4982267;28;20492;-78
2023/12/01 07:01:35;;;;;;;29.40;13.20;;;;;;;;;;4993905;28;20054;-78
2023/12/01 07:04:07;;;;;;;28.23;13.00;;;;;;;;;;4993473;28;20508;-78
2023/12/01 07:06:34;;;;;;;29.55;13.18;;;;;;;;;;4993957;28;20051;-78
2023/12/01 07:09:00;;;;;;;30.30;13.93;;;;;;;;;;4994138;28;20054;-77
2023/12/01 07:11:26;;;;;;;29.80;14.50;;;;;;;;;;4993136;28;20046;-78
2023/12/01 07:13:52;;;;;;;32.65;15.00;;;;;;;;;;5011940;28;20049;-78
2023/12/01 07:16:19;;;;;;;30.33;14.20;;;;;;;;;;5006382;28;20061;-78
2023/12/01 07:18:45;;;;;;;29.98;13.80;;;;;;;;;;4991189;28;20388;-78
2023/12/01 07:21:11;;;;;;;28.30;13.45;;;;;;;;;;4989331;28;20186;-78
2023/12/01 07:23:40;;;;;;;27.05;13.48;;;;;;;;;;4991114;28;20094;-78
2023/12/01 07:26:06;;;;;;;26.83;13.43;;;;;;;;;;4991253;28;20483;-77
2023/12/01 07:28:33;;;;;;;28.10;14.05;;;;;;;;;;4990553;28;20073;-77
2023/12/01 07:31:00;;;;;;;28.67;13.73;;;;;;;;;;4991359;28;20050;-78
2023/12/01 07:33:26;;;;;;;28.90;13.80;;;;;;;;;;4989420;28;20377;-78
2023/12/01 07:35:52;;;;;;;30.90;14.18;;;;;;;;;;4991720;28;20399;-78
2023/12/01 07:38:20;;;;;;;29.13;13.50;;;;;;;;;;4991927;28;20092;-78
2023/12/01 07:40:46;;;;;;;30.15;13.73;;;;;;;;;;4991891;28;20050;-77
2023/12/01 07:43:12;;;;;;;28.48;13.77;;;;;;;;;;4987857;28;20042;-77
2023/12/01 07:45:38;;;;;;;27.38;13.05;;;;;;;;;;4990450;28;20047;-77
2023/12/01 07:48:05;;;;;;;29.92;14.15;;;;;;;;;;4990074;28;20051;-77
2023/12/01 07:50:31;;;;;;;29.67;14.65;;;;;;;;;;4990439;28;20115;-77
2023/12/01 07:52:57;;;;;;;27.27;13.38;;;;;;;;;;4994202;28;20046;-78
2023/12/01 07:55:24;;;;;;;25.88;13.20;;;;;;;;;;4993245;28;20038;-78
2023/12/01 07:57:51;;;;;;;31.30;15.15;;;;;;;;;;4995908;28;20361;-78
2023/12/01 08:00:17;;;;;;;31.55;15.32;;;;;;;;;;4995208;28;20042;-78
2023/12/01 08:02:44;;;;;;;29.25;14.77;;;;;;;;;;4989611;28;20400;-78
2023/12/01 08:05:13;;;;;;;30.25;15.60;;;;;;;;;;4990453;28;20448;-78
2023/12/01 08:07:43;;;;;;;28.00;13.00;;;;;;;;;;4991603;28;20100;-78
2023/12/01 08:10:14;;;;;;;29.85;14.50;;;;;;;;;;4989725;28;20058;-78
2023/12/01 08:12:41;;;;;;;26.63;12.90;;;;;;;;;;4992320;28;20042;-78
2023/12/01 08:15:07;;;;;;;27.33;13.57;;;;;;;;;;4975018;28;20046;-78
2023/12/01 08:17:33;;;;;;;27.67;13.90;;;;;;;;;;4995162;28;20046;-79
2023/12/01 08:19:59;;;;;;;28.42;13.82;;;;;;;;;;4994713;28;20080;-78
2023/12/01 08:22:25;;;;;;;28.27;14.50;;;;;;;;;;4990692;28;20049;-77
2023/12/01 08:24:51;;;;;;;27.40;13.90;;;;;;;;;;4992816;28;20045;-78
2023/12/01 08:27:17;;;;;;;28.50;14.85;;;;;;;;;;4994249;28;20404;-78
2023/12/01 08:29:43;;;;;;;28.73;14.77;;;;;;;;;;4993723;28;20046;-78
2023/12/01 08:32:10;;;;;;;26.77;13.10;;;;;;;;;;4994600;28;20046;-78
2023/12/01 08:34:36;;;;;;;27.70;13.38;;;;;;;;;;4996001;28;20057;-78
2023/12/01 08:37:03;;;;;;;31.85;14.60;;;;;;;;;;4994500;28;20517;-78
2023/12/01 08:39:30;;;;;;;31.08;15.18;;;;;;;;;;4993491;28;20042;-78
2023/12/01 08:41:56;;;;;;;28.25;14.23;;;;;;;;;;4994066;28;20081;-78
2023/12/01 08:44:22;;;;;;;28.35;14.48;;;;;;;;;;4994449;28;20120;-78
2023/12/01 08:46:48;;;;;;;30.67;14.98;;;;;;;;;;4993999;28;20515;-78
2023/12/01 08:49:14;;;;;;;28.65;14.48;;;;;;;;;;4993009;28;20042;-78
2023/12/01 08:51:40;;;;;;;27.88;14.13;;;;;;;;;;4994588;28;20078;-78
2023/12/01 08:54:06;;;;;;;29.30;14.57;;;;;;;;;;4991372;28;20049;-78
2023/12/01 08:56:33;;;;;;;28.55;14.88;;;;;;;;;;4993894;28;20046;-78
2023/12/01 08:59:00;;;;;;;28.98;13.93;;;;;;;;;;4992870;28;20480;-78
2023/12/01 09:01:26;;;;;;;27.55;14.68;;;;;;;;;;4992409;28;20042;-77
2023/12/01 09:03:52;;;;;;;26.05;13.93;;;;;;;;;;4992716;28;20054;-78
2023/12/01 09:06:18;;;;;;;29.95;15.02;;;;;;;;;;4993505;28;20057;-77
2023/12/01 09:08:44;;;;;;;32.53;14.88;;;;;;;;;;4994545;28;20046;-77
2023/12/01 09:11:10;;;;;;;35.13;14.82;;;;;;;;;;4992530;28;20050;-77
2023/12/01 09:13:36;;;;;;;30.90;14.93;;;;;;;;;;4989109;28;20082;-77
2023/12/01 09:16:03;;;;;;;28.08;13.55;;;;;;;;;;4993749;28;20476;-77
2023/12/01 09:18:29;;;;;;;28.85;14.70;;;;;;;;;;4991859;28;20042;-77
2023/12/01 09:20:55;;;;;;;30.88;16.17;;;;;;;;;;4993539;28;20045;-77
2023/12/01 09:23:23;;;;;;;29.58;14.98;;;;;;;;;;4993714;28;20053;-77
2023/12/01 09:25:49;;;;;;;31.40;16.30;;;;;;;;;;4994683;28;20534;-77
2023/12/01 09:28:15;;;;;;;28.10;15.43;;;;;;;;;;4993040;28;20445;-77
2023/12/01 09:30:41;;;;;;;32.80;16.67;;;;;;;;;;4993628;28;20484;-77
2023/12/01 09:33:07;;;;;;;29.15;16.13;;;;;;;;;;4993001;28;20417;-77
2023/12/01 09:35:33;;;;;;;32.65;16.92;;;;;;;;;;4993694;28;20069;-77
2023/12/01 09:37:59;;;;;;;32.38;18.95;;;;;;;;;;4993530;28;20054;-77
2023/12/01 09:40:26;;;;;;;35.25;21.35;;;;;;;;;;4993510;28;20038;-77
2023/12/01 09:42:52;;;;;;;33.40;19.70;;;;;;;;;;4974368;28;20050;-78
2023/12/01 09:45:22;;;;;;;31.63;19.42;;;;;;;;;;4992517;28;20503;-78
2023/12/01 09:47:51;;;;;;;33.45;19.50;;;;;;;;;;4991942;28;20148;-78
2023/12/01 09:50:18;;;;;;;33.10;18.42;;;;;;;;;;4992556;28;20050;-78
2023/12/01 09:52:44;;;;;;;31.58;16.30;;;;;;;;;;4996505;28;20046;-78
2023/12/01 09:55:10;;;;;;;29.35;16.88;;;;;;;;;;4997562;28;20105;-78
2023/12/01 09:57:39;;;;;;;30.80;17.08;;;;;;;;;;4997118;28;20046;-78
2023/12/01 10:00:11;;;;;;;26.75;14.93;;;;;;;;;;4993394;28;20061;-78
2023/12/01 10:02:41;;;;;;;27.13;15.38;;;;;;;;;;4993810;28;20065;-78
2023/12/01 10:05:07;;;;;;;25.42;15.05;;;;;;;;;;4989920;28;20047;-78
2023/12/01 10:07:34;;;;;;;25.85;14.23;;;;;;;;;;4990860;28;20057;-78
2023/12/01 10:10:19;;;;;;;25.27;14.27;;;;;;;;;;4992095;28;20046;-78
2023/12/01 10:13:07;;;;;;;26.33;14.70;;;;;;;;;;4992899;28;20443;-78
2023/12/01 10:15:33;;;;;;;26.55;14.95;;;;;;;;;;4988567;28;20054;-78
2023/12/01 10:18:29;;;;;;;24.15;13.50;;;;;;;;;;4993201;28;20117;-78
2023/12/01 10:20:59;;;;;;;23.52;12.80;;;;;;;;;;4980789;28;20145;-79
2023/12/01 10:23:25;;;;;;;24.02;13.25;;;;;;;;;;4993086;28;20046;-79
2023/12/01 10:25:52;;;;;;;25.55;13.18;;;;;;;;;;4994292;28;20046;-79
2023/12/01 10:28:18;;;;;;;24.70;13.00;;;;;;;;;;4993604;28;20058;-79
2023/12/01 10:30:57;;;;;;;24.75;12.10;;;;;;;;;;4994223;28;20053;-79
2023/12/01 10:33:24;;;;;;;25.85;13.13;;;;;;;;;;4990831;28;20134;-79
2023/12/01 10:36:07;;;;;;;25.38;12.88;;;;;;;;;;4996145;28;20460;-79
2023/12/01 10:38:33;;;;;;;24.70;12.50;;;;;;;;;;4976019;28;20057;-78
2023/12/01 10:41:01;;;;;;;27.85;13.38;;;;;;;;;;4994282;28;20050;-79
2023/12/01 10:43:28;;;;;;;31.35;14.93;;;;;;;;;;4993470;28;20069;-79
2023/12/01 10:45:54;;;;;;;31.15;17.55;;;;;;;;;;4993848;28;20400;-79
2023/12/01 10:48:21;;;;;;;30.85;15.80;;;;;;;;;;4993800;28;20046;-79
2023/12/01 10:50:48;;;;;;;27.63;14.02;;;;;;;;;;4994541;28;20499;-79
2023/12/01 10:53:19;;;;;;;26.83;13.85;;;;;;;;;;4987071;28;20526;-79
2023/12/01 10:55:46;;;;;;;27.52;14.32;;;;;;;;;;4980892;28;20046;-79
2023/12/01 10:58:15;;;;;;;31.13;14.63;;;;;;;;;;4993242;28;20050;-79
2023/12/01 11:00:41;;;;;;;29.50;14.63;;;;;;;;;;4994131;28;20062;-79
2023/12/01 11:03:09;;;;;;;26.55;14.10;;;;;;;;;;4994077;28;20058;-79
2023/12/01 11:05:36;;;;;;;28.40;14.75;;;;;;;;;;4993762;28;20050;-79
2023/12/01 11:08:09;;;;;;;32.55;17.17;;;;;;;;;;4994073;28;20149;-79
2023/12/01 11:10:35;;;;;;;32.58;15.38;;;;;;;;;;4994583;28;20046;-79
2023/12/01 11:13:07;;;;;;;35.20;16.02;;;;;;;;;;4995068;28;20102;-79
2023/12/01 11:15:35;;;;;;;47.78;19.88;;;;;;;;;;4990145;28;20042;-79
2023/12/01 11:18:01;;;;;;;28.65;13.90;;;;;;;;;;4992098;28;20542;-79
2023/12/01 11:20:30;;;;;;;38.42;19.10;;;;;;;;;;4995016;28;20129;-79
2023/12/01 11:23:06;;;;;;;45.53;23.67;;;;;;;;;;4994706;28;20105;-79
2023/12/01 11:25:46;;;;;;;32.35;16.02;;;;;;;;;;4977697;28;20046;-79
2023/12/01 11:31:08;;;;;;;33.05;15.60;;;;;;;;;;4988697;28;20054;-79
2023/12/01 11:33:38;;;;;;;27.98;13.57;;;;;;;;;;4991048;28;20061;-78
2023/12/01 11:36:23;;;;;;;28.67;13.15;;;;;;;;;;4993849;28;20058;-79
2023/12/01 11:41:49;;;;;;;30.40;15.23;;;;;;;;;;4987518;28;20050;-79
2023/12/01 11:44:16;;;;;;;27.80;13.85;;;;;;;;;;4993260;28;20046;-79
2023/12/01 11:46:42;;;;;;;27.13;14.20;;;;;;;;;;4995719;28;20078;-79
2023/12/01 11:49:09;;;;;;;27.88;15.85;;;;;;;;;;4995038;28;20042;-79
2023/12/01 11:51:38;;;;;;;27.13;14.48;;;;;;;;;;4996262;28;20073;-78
2023/12/01 11:54:04;;;;;;;29.20;15.80;;;;;;;;;;4995784;28;20050;-78
2023/12/01 11:56:34;;;;;;;27.20;15.18;;;;;;;;;;4994852;28;20042;-79
2023/12/01 11:59:00;;;;;;;27.08;13.32;;;;;;;;;;4993779;28;20526;-79
2023/12/01 12:01:27;;;;;;;24.70;14.35;;;;;;;;;;4994965;28;20407;-79
2023/12/01 12:03:56;;;;;;;24.92;14.77;;;;;;;;;;4996158;28;20050;-79
2023/12/01 12:06:23;;;;;;;24.52;14.75;;;;;;;;;;4993881;28;20065;-79
2023/12/01 12:08:52;;;;;;;24.35;14.50;;;;;;;;;;4989252;28;20423;-79
2023/12/01 12:11:19;;;;;;;24.52;14.63;;;;;;;;;;4988704;28;20034;-79
2023/12/01 12:13:53;;;;;;;23.38;13.70;;;;;;;;;;4989393;28;20046;-79
2023/12/01 12:16:20;;;;;;;21.02;13.05;;;;;;;;;;4990678;28;20061;-79
2023/12/01 12:18:48;;;;;;;20.10;11.93;;;;;;;;;;4995137;28;20046;-78
2023/12/01 12:21:14;;;;;;;21.90;12.93;;;;;;;;;;4994223;28;20042;-79
2023/12/01 12:23:40;;;;;;;24.00;14.20;;;;;;;;;;4988539;28;20449;-78
2023/12/01 12:26:17;;;;;;;27.55;15.65;;;;;;;;;;4987973;28;20415;-79
2023/12/01 12:28:46;;;;;;;25.95;15.05;;;;;;;;;;4984124;28;20050;-78
2023/12/01 12:31:12;;;;;;;25.13;15.05;;;;;;;;;;4987459;28;20072;-79
2023/12/01 12:33:38;;;;;;;27.10;15.32;;;;;;;;;;4988502;28;20096;-78
2023/12/01 12:36:05;;;;;;;23.00;14.15;;;;;;;;;;4988299;28;20869;-79
2023/12/01 12:38:32;;;;;;;30.00;15.38;;;;;;;;;;4992626;28;20180;-79
2023/12/01 12:40:59;;;;;;;26.10;14.70;;;;;;;;;;4992408;28;20038;-79
2023/12/01 12:43:25;;;;;;;24.95;15.13;;;;;;;;;;4993754;28;20042;-79
2023/12/01 12:45:51;;;;;;;25.52;14.18;;;;;;;;;;4994377;28;20048;-79
2023/12/01 12:48:17;;;;;;;28.15;15.13;;;;;;;;;;4994849;28;20492;-79
2023/12/01 12:50:45;;;;;;;23.58;14.57;;;;;;;;;;4995052;28;20050;-79
2023/12/01 12:53:12;;;;;;;23.00;13.23;;;;;;;;;;4995003;28;20057;-79
2023/12/01 12:55:38;;;;;;;23.50;13.90;;;;;;;;;;4987660;28;20043;-79
2023/12/01 12:58:04;;;;;;;21.02;12.30;;;;;;;;;;5000581;28;20053;-78
2023/12/01 13:00:30;;;;;;;21.85;14.02;;;;;;;;;;4996420;28;20126;-78
2023/12/01 13:02:56;;;;;;;21.48;13.05;;;;;;;;;;4994345;28;20121;-79
2023/12/01 13:05:22;;;;;;;21.30;12.88;;;;;;;;;;4995739;28;20043;-77
2023/12/01 13:07:48;;;;;;;20.95;13.20;;;;;;;;;;5004721;28;20398;-77
2023/12/01 13:10:14;;;;;;;23.80;14.85;;;;;;;;;;4992777;28;20180;-77
2023/12/01 13:12:40;;;;;;;21.38;13.45;;;;;;;;;;4995218;28;20048;-79
2023/12/01 13:15:07;;;;;;;21.08;13.52;;;;;;;;;;4994729;28;20046;-79
2023/12/01 13:17:33;;;;;;;22.92;13.38;;;;;;;;;;4996333;28;20047;-79
2023/12/01 13:19:59;;;;;;;20.80;12.93;;;;;;;;;;4997062;28;20400;-80
2023/12/01 13:22:25;;;;;;;19.92;12.25;;;;;;;;;;4995990;28;20050;-79
2023/12/01 13:24:51;;;;;;;22.15;13.32;;;;;;;;;;4993246;28;20058;-79
2023/12/01 13:27:17;;;;;;;29.58;15.60;;;;;;;;;;4994383;28;20038;-79
2023/12/01 13:29:44;;;;;;;30.60;15.07;;;;;;;;;;4994394;28;20050;-79
2023/12/01 13:32:10;;;;;;;27.95;15.77;;;;;;;;;;4976672;28;20049;-79
2023/12/01 13:34:37;;;;;;;23.45;14.60;;;;;;;;;;4993203;28;20180;-79
2023/12/01 13:37:03;;;;;;;28.20;16.65;;;;;;;;;;4993894;28;20518;-79
2023/12/01 13:39:29;;;;;;;20.23;13.25;;;;;;;;;;4994401;28;20053;-79
2023/12/01 13:41:55;;;;;;;25.38;14.90;;;;;;;;;;5002380;28;20068;-79
2023/12/01 13:44:21;;;;;;;62.30;14.00;;;;;;;;;;5006708;28;20034;-81
2023/12/01 13:46:47;;;;;;;20.52;12.73;;;;;;;;;;4998562;28;20046;-79
2023/12/01 13:49:16;;;;;;;22.50;13.23;;;;;;;;;;4993415;28;20053;-79
2023/12/01 13:51:42;;;;;;;19.00;11.95;;;;;;;;;;4992084;28;20054;-79
2023/12/01 13:54:10;;;;;;;22.30;13.10;;;;;;;;;;4992834;28;20093;-78
2023/12/01 13:56:36;;;;;;;21.55;13.52;;;;;;;;;;4991711;28;20105;-78
2023/12/01 13:59:03;;;;;;;22.38;14.20;;;;;;;;;;4991735;28;20105;-79
2023/12/01 14:01:29;;;;;;;25.02;15.25;;;;;;;;;;4991282;28;20121;-78
2023/12/01 14:03:55;;;;;;;24.27;15.27;;;;;;;;;;4994873;28;20050;-78
2023/12/01 14:06:21;;;;;;;23.60;14.15;;;;;;;;;;4991177;28;20487;-78
2023/12/01 14:08:47;;;;;;;24.55;14.07;;;;;;;;;;4992197;28;20092;-78
2023/12/01 14:11:13;;;;;;;21.73;13.18;;;;;;;;;;4992893;28;20050;-78
2023/12/01 14:13:40;;;;;;;20.52;13.13;;;;;;;;;;4992974;28;20133;-78
2023/12/01 14:16:09;;;;;;;21.50;13.93;;;;;;;;;;4992685;28;20073;-79
2023/12/01 14:18:36;;;;;;;23.13;14.07;;;;;;;;;;5001801;28;20038;-79
2023/12/01 14:21:02;;;;;;;22.60;13.65;;;;;;;;;;4995109;28;20456;-79
2023/12/01 14:23:28;;;;;;;23.15;14.23;;;;;;;;;;4997645;28;20069;-79
2023/12/01 14:25:54;;;;;;;25.55;14.02;;;;;;;;;;5004261;28;20057;-79